McCombs, Kentucky
Current Conditions -  °F | °C
As of 2:15 AM on Thursday 18 Dec 2014 (Local Time) from KPBX Reporting Station
Overcast Overcast  
Wind Chill: 24°   Ceiling: 1300
Heat Index: 30°   Visibility: 10mi
Dew Point: 26°   Wind: 6mph
Humidity: 86%   Direction: 300°WNW
Pressure: 30.21"   Gusts: NA
Location:  37.5348°N, 82.513°W
Report Text: KPBX 180715Z AUTO 30005KT 10SM OVC013 M01/M03 A3021 RMK AO2 T10121033
Loading
Personal Weather Stations






























Interactive Weather Map New forecast layout! Learn more

10-Day Weather Forecast

Advertisements
Track Severe Weather on mobile